createdAt,value
2017-11-26T00:00:03.868Z,44.3
2017-11-26T00:00:19.979Z,44.7
2017-11-26T00:00:36.133Z,44.3
2017-11-26T00:00:48.354Z,44.6
2017-11-26T00:01:01.319Z,44.6
2017-11-26T00:01:14.219Z,44.2
2017-11-26T00:01:37.085Z,44.5
2017-11-26T00:01:54.510Z,44.4
2017-11-26T00:02:12.507Z,44.5
2017-11-26T00:02:25.289Z,44.1
2017-11-26T00:02:42.202Z,44.1
2017-11-26T00:02:54.434Z,44.4
2017-11-26T00:03:07.280Z,44.4
2017-11-26T00:03:20.235Z,44.2
2017-11-26T00:03:34.231Z,44.4
2017-11-26T00:03:50.633Z,44
2017-11-26T00:04:06.304Z,44
2017-11-26T00:04:22.491Z,44.5
2017-11-26T00:04:34.650Z,44
2017-11-26T00:04:47.584Z,44.5
2017-11-26T00:05:00.559Z,44.5
2017-11-26T00:05:13.539Z,44.2
2017-11-26T00:05:26.420Z,44.2
2017-11-26T00:05:43.416Z,44.2
2017-11-26T00:05:55.582Z,44
2017-11-26T00:06:12.496Z,44.5
2017-11-26T00:06:24.713Z,44.5
2017-11-26T00:06:41.637Z,44.2
2017-11-26T00:06:53.803Z,44.4
2017-11-26T00:07:20.697Z,44.4
2017-11-26T00:07:33.587Z,44.2
2017-11-26T00:07:45.456Z,44.5
2017-11-26T00:07:58.422Z,44.4
2017-11-26T00:08:15.435Z,44.2
2017-11-26T00:08:31.458Z,44.5
2017-11-26T00:08:49.683Z,44.2
2017-11-26T00:09:01.397Z,44.5
2017-11-26T00:09:30.537Z,44.6
2017-11-26T00:09:43.327Z,44.2
2017-11-26T00:09:56.267Z,44.3
2017-11-26T00:10:07.646Z,44.8
2017-11-26T00:10:20.574Z,44.6
2017-11-26T00:10:33.547Z,44.6
2017-11-26T00:10:46.477Z,44.6
2017-11-26T00:10:57.813Z,44.7
2017-11-26T00:11:10.802Z,44.7
2017-11-26T00:11:23.739Z,44.7
2017-11-26T00:11:36.701Z,44.4
2017-11-26T00:11:53.684Z,44.7
2017-11-26T00:12:05.806Z,44.3
2017-11-26T00:12:18.760Z,44.7
2017-11-26T00:12:35.717Z,44.8
2017-11-26T00:12:51.812Z,44.7
2017-11-26T00:13:04.217Z,44.7
2017-11-26T00:13:17.028Z,44.3
2017-11-26T00:13:30.082Z,44.8
2017-11-26T00:13:46.882Z,44.3
2017-11-26T00:13:59.011Z,44.7
2017-11-26T00:14:11.961Z,44.6
2017-11-26T00:14:24.954Z,44.7
2017-11-26T00:14:37.869Z,44.7
2017-11-26T00:14:50.909Z,44.8
2017-11-26T00:15:07.907Z,44.3
2017-11-26T00:15:19.939Z,44.3
2017-11-26T00:15:36.955Z,44.3
2017-11-26T00:15:49.150Z,44.8
2017-11-26T00:16:02.085Z,44.9
2017-11-26T00:16:14.962Z,44.3
2017-11-26T00:16:27.935Z,44.5
2017-11-26T00:16:44.916Z,44.3
2017-11-26T00:16:57.039Z,44.7
2017-11-26T00:17:14.141Z,44.7
2017-11-26T00:17:26.210Z,44.3
2017-11-26T00:17:40.634Z,44.2
2017-11-26T00:17:53.663Z,44.7
2017-11-26T00:18:07.781Z,44.7
2017-11-26T00:18:25.179Z,44.6
2017-11-26T00:18:37.339Z,44.5
2017-11-26T00:18:50.272Z,44.6
2017-11-26T00:19:07.248Z,44.8
2017-11-26T00:19:20.426Z,44.7
2017-11-26T00:19:32.319Z,44.7
2017-11-26T00:19:45.276Z,44.3
2017-11-26T00:20:02.932Z,44.3
2017-11-26T02:00:16.842Z,43.7
2017-11-26T02:00:32.946Z,43.7
2017-11-26T02:00:49.148Z,43.7
2017-11-26T02:01:01.261Z,43.8
2017-11-26T02:01:12.746Z,43.6
2017-11-26T02:01:29.580Z,43.6
2017-11-26T02:01:45.708Z,43.6
2017-11-26T02:01:58.853Z,43.9
2017-11-26T02:02:14.842Z,43.7
2017-11-26T02:02:30.986Z,43.8
2017-11-26T02:02:43.177Z,43.6
2017-11-26T02:03:00.129Z,43.7
2017-11-26T02:03:12.306Z,43.8
2017-11-26T02:03:29.226Z,43.6
2017-11-26T02:03:45.361Z,44.1
2017-11-26T02:04:01.536Z,43.7
2017-11-26T02:04:17.685Z,43.7
2017-11-26T02:04:57.212Z,43.7
2017-11-26T02:05:11.873Z,43.7
2017-11-26T02:05:25.312Z,43.8
2017-11-26T02:05:37.739Z,44
2017-11-26T02:05:50.682Z,43.9
2017-11-26T02:06:03.879Z,43.6
2017-11-26T02:06:16.642Z,43.8
2017-11-26T02:06:29.440Z,43.6
2017-11-26T02:06:42.416Z,43.8
2017-11-26T02:06:55.389Z,43.7
2017-11-26T02:07:12.356Z,43.5
2017-11-26T02:07:24.491Z,43.6
2017-11-26T02:07:37.439Z,43.7
2017-11-26T02:07:48.799Z,43.9
2017-11-26T02:08:01.776Z,43.8
2017-11-26T02:08:14.709Z,43.5
2017-11-26T02:08:32.935Z,43.5
2017-11-26T02:08:45.388Z,43.6
2017-11-26T02:08:58.355Z,43.8
2017-11-26T02:09:11.323Z,43.8
2017-11-26T02:09:28.258Z,43.8
2017-11-26T02:09:40.381Z,43.8
2017-11-26T02:09:53.345Z,43.6
2017-11-26T02:10:08.705Z,43.8
2017-11-26T02:10:20.812Z,44
2017-11-26T02:10:33.809Z,43.6
2017-11-26T02:10:50.735Z,43.7
2017-11-26T02:11:02.901Z,43.6
2017-11-26T02:11:15.881Z,43.8
2017-11-26T02:11:32.804Z,43.8
2017-11-26T02:11:45.304Z,43.8
2017-11-26T02:11:58.987Z,44
2017-11-26T02:12:14.999Z,43.7
2017-11-26T02:12:31.104Z,43.8
2017-11-26T02:12:43.267Z,43.6
2017-11-26T02:12:56.127Z,43.8
2017-11-26T02:13:07.558Z,43.7
2017-11-26T02:13:20.433Z,43.8
2017-11-26T02:13:31.844Z,43.6
2017-11-26T02:13:48.794Z,43.7
2017-11-26T02:14:00.933Z,43.9
2017-11-26T02:14:14.296Z,44.1
2017-11-26T02:14:26.873Z,43.8
2017-11-26T02:14:52.908Z,43.7
2017-11-26T02:15:05.564Z,43.8
2017-11-26T02:15:18.525Z,43.8
2017-11-26T02:15:31.498Z,43.8
2017-11-26T02:15:44.688Z,43.8
2017-11-26T02:15:57.477Z,43.7
2017-11-26T02:16:10.830Z,43.6
2017-11-26T02:16:24.016Z,44
2017-11-26T02:16:36.276Z,44
2017-11-26T02:16:49.182Z,43.5
2017-11-26T02:17:02.209Z,43.8
2017-11-26T02:17:15.027Z,43.8
2017-11-26T02:17:28.202Z,43.8
2017-11-26T02:17:44.936Z,43.7
2017-11-26T02:17:57.147Z,43.9
2017-11-26T02:18:14.886Z,43.7
2017-11-26T02:18:31.831Z,43.7
2017-11-26T02:18:48.245Z,43.7
2017-11-26T02:19:03.353Z,43.7
2017-11-26T02:19:16.554Z,43.5
2017-11-26T02:19:29.231Z,43.8
2017-11-26T02:19:46.176Z,43.8
2017-11-26T02:19:58.991Z,43.8
2017-11-26T02:20:15.354Z,43.5
2017-11-26T02:20:27.546Z,43.5
2017-11-26T02:20:40.477Z,43.8
2017-11-26T02:20:53.649Z,43.5
2017-11-26T02:21:12.062Z,43.8
2017-11-26T02:21:27.374Z,43.9
2017-11-26T02:21:40.324Z,43.6
2017-11-26T02:21:53.282Z,43.7
2017-11-26T02:22:06.137Z,43.7
2017-11-26T02:22:19.081Z,43.9
2017-11-26T02:22:36.086Z,43.4
2017-11-26T02:22:49.806Z,43.5
2017-11-26T02:23:07.468Z,43.4
2017-11-26T02:23:25.496Z,43.7
2017-11-26T02:23:38.291Z,43.7
2017-11-26T02:23:55.211Z,43.5
2017-11-26T02:24:11.372Z,43.6
2017-11-26T02:24:23.582Z,43.8
2017-11-26T02:24:38.495Z,43.6
2017-11-26T02:24:51.007Z,43.5
2017-11-26T02:25:03.985Z,43.5
2017-11-26T02:25:20.922Z,43.5
2017-11-26T02:25:33.058Z,43.9
2017-11-26T02:25:46.087Z,43.5
2017-11-26T02:25:58.990Z,43.8
2017-11-26T02:26:11.997Z,43.8
2017-11-26T02:26:29.149Z,43.8
2017-11-26T02:26:41.141Z,43.8
2017-11-26T02:26:54.134Z,43.7
2017-11-26T02:27:11.001Z,43.7
2017-11-26T02:27:27.210Z,43.8
2017-11-26T02:27:45.440Z,43.8
2017-11-26T02:28:01.997Z,43.8
2017-11-26T02:28:14.787Z,43.5
2017-11-26T02:28:27.880Z,43.5
2017-11-26T02:28:44.758Z,43.7
2017-11-26T02:28:56.969Z,43.6
2017-11-26T02:29:09.940Z,43.5
2017-11-26T02:29:22.945Z,43.8
2017-11-26T02:29:35.804Z,43.7
2017-11-26T02:29:52.668Z,43.7
2017-11-26T02:30:04.831Z,43.7
2017-11-26T02:30:17.812Z,43.5
2017-11-26T02:30:31.040Z,43.8
2017-11-26T02:30:43.689Z,43.4
2017-11-26T02:30:56.704Z,43.8
2017-11-26T02:31:09.565Z,43.7
2017-11-26T02:31:23.450Z,43.5
2017-11-26T02:31:41.129Z,43.6
2017-11-26T02:31:53.216Z,43.7
2017-11-26T02:32:11.315Z,43.7
2017-11-26T02:32:23.969Z,43.8
2017-11-26T02:32:42.488Z,44.1
2017-11-26T02:32:54.693Z,43.8
2017-11-26T02:33:07.616Z,43.6
2017-11-26T02:33:24.587Z,43.7
2017-11-26T02:33:36.722Z,43.4
2017-11-26T02:33:53.646Z,43.7
2017-11-26T02:34:05.845Z,43.5
2017-11-26T02:34:22.899Z,43.5
2017-11-26T02:34:38.906Z,43.5
2017-11-26T02:34:55.797Z,43.6
2017-11-26T02:35:08.857Z,43.4
2017-11-26T02:35:21.807Z,43.5
2017-11-26T02:35:38.733Z,43.8
2017-11-26T02:35:50.926Z,43.7
2017-11-26T02:36:03.875Z,43.8
2017-11-26T02:36:16.851Z,43.7
2017-11-26T02:36:33.801Z,43.7
2017-11-26T02:36:45.955Z,43.7
2017-11-26T02:36:58.840Z,43.7
2017-11-26T02:37:11.866Z,43.9
2017-11-26T02:37:24.863Z,43.8
2017-11-26T02:37:41.719Z,43.5
2017-11-26T02:37:58.612Z,43.8
2017-11-26T02:38:16.141Z,43.5
2017-11-26T02:38:31.807Z,43.4
2017-11-26T02:38:48.912Z,43.5
2017-11-26T02:39:01.725Z,43.7
2017-11-26T02:39:14.719Z,44
2017-11-26T02:39:28.869Z,43.7
2017-11-26T02:39:46.824Z,43.6
2017-11-26T02:40:03.948Z,43.8
2017-11-26T02:40:16.084Z,43.8
2017-11-26T02:40:30.606Z,43.7
2017-11-26T02:40:47.559Z,43.5
2017-11-26T02:40:59.707Z,43.5
2017-11-26T02:41:12.680Z,43.7
2017-11-26T02:41:29.729Z,43.5
2017-11-26T02:41:41.718Z,43.5
2017-11-26T02:41:58.721Z,43.6
2017-11-26T02:42:12.012Z,43.5
2017-11-26T02:42:27.718Z,43.9
2017-11-26T02:42:40.024Z,43.8
2017-11-26T02:42:58.152Z,43.6
2017-11-26T02:58:07.455Z,43.6
2017-11-26T02:58:23.630Z,43.4
2017-11-26T02:58:39.774Z,43.5
2017-11-26T02:58:51.918Z,43.7
2017-11-26T02:59:03.285Z,43.6
2017-11-26T02:59:18.617Z,43.9
2017-11-26T02:59:30.854Z,43.5
2017-11-26T02:59:47.702Z,43.4
2017-11-26T03:00:03.900Z,43.5
2017-11-26T03:00:16.063Z,43.9
2017-11-26T03:00:31.461Z,43.6
2017-11-26T03:00:47.546Z,43.9
2017-11-26T03:01:03.709Z,43.5
2017-11-26T03:01:19.886Z,43.7
2017-11-26T03:01:35.989Z,43.3
2017-11-26T03:01:52.172Z,43.8
2017-11-26T03:02:08.345Z,43.4
2017-11-26T03:02:24.475Z,43.5
2017-11-26T03:02:40.641Z,43.8
2017-11-26T03:02:56.831Z,43.4
2017-11-26T03:03:36.304Z,43.4
2017-11-26T03:03:49.339Z,43.5
2017-11-26T03:04:02.239Z,43.5
2017-11-26T03:04:15.168Z,43.5
2017-11-26T03:04:26.498Z,43.4
2017-11-26T03:04:41.918Z,44
2017-11-26T03:04:54.102Z,43.8
2017-11-26T03:05:07.010Z,43.4
2017-11-26T03:05:23.906Z,43.6
2017-11-26T03:05:40.061Z,43.5
2017-11-26T03:05:52.237Z,43.4
2017-11-26T03:06:05.237Z,43.5
2017-11-26T03:06:22.169Z,44
2017-11-26T03:06:34.351Z,43.9
2017-11-26T03:06:47.255Z,43.6
2017-11-26T03:07:00.227Z,43.5
2017-11-26T03:07:13.192Z,43.5
2017-11-26T03:07:26.140Z,43.5
2017-11-26T03:07:39.036Z,43.5
2017-11-26T03:07:50.471Z,43.4
2017-11-26T03:08:03.416Z,43.8
2017-11-26T03:08:16.392Z,43.7
2017-11-26T03:08:29.272Z,43.9
2017-11-26T03:08:42.252Z,43.4
2017-11-26T03:08:59.215Z,44
2017-11-26T03:09:11.448Z,43.6
2017-11-26T03:09:24.314Z,43.8
2017-11-26T03:09:37.297Z,43.9
2017-11-26T03:09:50.282Z,43.4
2017-11-26T03:10:03.783Z,43.4
2017-11-26T03:10:20.168Z,43.4
2017-11-26T03:10:32.296Z,43.9
2017-11-26T03:10:45.233Z,44
2017-11-26T03:10:58.218Z,43.4
2017-11-26T03:11:11.137Z,43.5
2017-11-26T03:11:28.047Z,43.4
2017-11-26T03:11:44.219Z,43.4
2017-11-26T03:12:00.404Z,43.4
2017-11-26T03:12:12.501Z,43.9
2017-11-26T03:12:25.483Z,43.5
2017-11-26T03:12:36.887Z,43.5
2017-11-26T03:12:49.760Z,43.5
2017-11-26T03:13:01.234Z,43.4
2017-11-26T03:13:14.106Z,43.5
2017-11-26T03:13:27.047Z,43.9
2017-11-26T03:13:38.435Z,43.3
2017-11-26T03:13:51.400Z,43.4
2017-11-26T03:14:08.349Z,43.5
2017-11-26T03:14:24.476Z,43.5
2017-11-26T03:14:40.601Z,43.4
2017-11-26T03:14:52.771Z,43.6
2017-11-26T03:15:05.819Z,43.6
2017-11-26T03:15:18.792Z,43.5
2017-11-26T03:15:31.661Z,43.5
2017-11-26T03:15:44.604Z,44
2017-11-26T03:15:57.564Z,43.9
2017-11-26T03:16:08.951Z,43.5
2017-11-26T03:16:21.898Z,43.8
2017-11-26T03:16:38.873Z,43.5
2017-11-26T03:16:51.008Z,43.6
2017-11-26T03:17:07.940Z,43.6
2017-11-26T03:17:20.091Z,43.5
2017-11-26T03:17:33.015Z,43.6
2017-11-26T03:17:44.419Z,43.5
2017-11-26T03:18:02.213Z,43.5
2017-11-26T03:18:23.230Z,43.9
2017-11-26T03:18:36.059Z,43.6
2017-11-26T03:18:52.999Z,43.7
2017-11-26T03:19:05.124Z,43.9
2017-11-26T03:19:18.168Z,43.7
2017-11-26T03:19:35.062Z,43.5
2017-11-26T03:19:51.207Z,43.5
2017-11-26T03:20:03.421Z,43.9
2017-11-26T03:20:20.300Z,44
2017-11-26T03:20:36.480Z,43.8
2017-11-26T03:20:48.624Z,43.6
2017-11-26T03:21:05.562Z,44
2017-11-26T03:21:21.724Z,43.4
2017-11-26T03:21:37.870Z,43.9
2017-11-26T03:21:54.078Z,43.4
2017-11-26T03:22:06.208Z,43.5
2017-11-26T03:22:23.129Z,43.4
2017-11-26T03:22:39.276Z,43.6
2017-11-26T03:22:51.469Z,43.9
2017-11-26T03:23:08.442Z,43.5
2017-11-26T03:23:20.548Z,43.7
2017-11-26T03:23:33.530Z,43.4
2017-11-26T03:23:46.489Z,43.4
2017-11-26T03:24:03.442Z,43.5
2017-11-26T03:24:19.533Z,43.7
2017-11-26T03:24:35.711Z,44
2017-11-26T03:24:51.870Z,43.5
2017-11-26T03:25:03.971Z,43.8
2017-11-26T03:25:19.329Z,43.8
2017-11-26T03:25:35.495Z,43.9
2017-11-26T03:25:51.627Z,44
2017-11-26T03:26:07.850Z,43.5
2017-11-26T03:26:19.974Z,43.3
2017-11-26T03:26:37.073Z,43.5
2017-11-26T03:26:49.104Z,43.6
2017-11-26T03:27:06.097Z,43.4
2017-11-26T03:27:22.202Z,43.5
2017-11-26T03:27:38.365Z,43.7
2017-11-26T03:27:54.480Z,43.5
2017-11-26T03:28:06.623Z,43.8
2017-11-26T03:28:22.032Z,43.5
2017-11-26T03:28:38.140Z,43.8
2017-11-26T03:28:54.243Z,43.5
2017-11-26T03:29:10.533Z,43.9
2017-11-26T03:29:26.570Z,43.6
2017-11-26T03:29:42.789Z,43.5
2017-11-26T03:29:58.910Z,43.6
2017-11-26T03:30:11.090Z,43.8
2017-11-26T03:30:28.023Z,43.8
2017-11-26T03:30:53.232Z,43.9
2017-11-26T03:31:05.985Z,43.4
2017-11-26T03:31:18.980Z,43.6
2017-11-26T03:31:31.857Z,43.4
2017-11-26T03:31:44.818Z,43.4
2017-11-26T03:31:57.763Z,44
2017-11-26T03:32:10.718Z,43.4
2017-11-26T03:32:26.025Z,43.5
2017-11-26T03:32:42.254Z,44
2017-11-26T03:32:58.463Z,43.5
2017-11-26T03:33:10.586Z,43.5
2017-11-26T03:33:23.458Z,43.3
2017-11-26T03:33:36.448Z,43.5
2017-11-26T03:33:47.789Z,43.4
2017-11-26T03:34:04.782Z,43.4
2017-11-26T03:34:16.938Z,43.5
2017-11-26T03:34:33.824Z,43.3
2017-11-26T03:34:50.003Z,43.6
2017-11-26T03:35:02.176Z,43.7
2017-11-26T03:35:15.167Z,43.4
2017-11-26T03:35:28.186Z,43.5
2017-11-26T03:35:41.074Z,43.4
2017-11-26T03:35:57.958Z,43.5
2017-11-26T03:36:12.151Z,43.6
2017-11-26T03:36:24.720Z,43.5
2017-11-26T03:36:37.671Z,44
2017-11-26T03:36:50.562Z,43.9
2017-11-26T03:37:01.932Z,44
2017-11-26T03:37:18.921Z,43.5
2017-11-26T03:37:35.110Z,43.9
2017-11-26T03:37:47.241Z,44
2017-11-26T03:38:00.169Z,43.7
2017-11-26T03:38:25.120Z,43.6
2017-11-26T03:38:41.221Z,43.4
2017-11-26T03:38:55.401Z,43.5
2017-11-26T03:39:12.965Z,43.6
2017-11-26T03:39:25.687Z,43.7
2017-11-26T03:39:37.131Z,43.4
2017-11-26T03:39:50.120Z,44
2017-11-26T03:40:03.509Z,43.5
2017-11-26T03:40:20.037Z,43.9
2017-11-26T03:40:32.096Z,43.6
2017-11-26T03:40:45.033Z,43.9
2017-11-26T03:40:57.977Z,43.6
2017-11-26T03:41:14.904Z,43.5
2017-11-26T03:41:31.144Z,43.6
2017-11-26T03:41:43.274Z,43.4
2017-11-26T03:41:56.171Z,43.9
2017-11-26T03:42:11.561Z,43.6
2017-11-26T03:42:23.738Z,43.5
2017-11-26T03:42:37.807Z,43.4
2017-11-26T03:42:49.609Z,43.5
2017-11-26T03:43:03.599Z,43.4
2017-11-26T03:43:15.611Z,43.9
2017-11-26T03:43:32.525Z,43.5
2017-11-26T03:43:44.622Z,43.4
2017-11-26T03:43:57.660Z,43.4
2017-11-26T03:44:10.559Z,43.4
2017-11-26T03:44:27.717Z,43.6
2017-11-26T03:44:39.695Z,43.4
2017-11-26T03:44:52.642Z,44
2017-11-26T03:45:09.557Z,43.9
2017-11-26T03:45:21.724Z,43.4
2017-11-26T03:45:34.677Z,43.5
2017-11-26T03:45:47.658Z,43.5
2017-11-26T03:46:00.557Z,43.9
2017-11-26T03:46:17.518Z,43.5
2017-11-26T03:46:29.662Z,43.4
2017-11-26T03:46:42.609Z,43.4
2017-11-26T03:46:59.608Z,43.5
2017-11-26T03:47:11.747Z,43.9
2017-11-26T03:47:24.717Z,43.6
2017-11-26T03:47:37.619Z,43.5
2017-11-26T03:47:50.599Z,43.4
2017-11-26T03:48:05.948Z,43.6
2017-11-26T03:48:22.141Z,43.6
2017-11-26T03:48:35.283Z,43.6
2017-11-26T03:48:47.236Z,43.5
2017-11-26T03:49:00.157Z,43.4
2017-11-26T03:49:13.134Z,43.9
2017-11-26T03:49:31.082Z,44
2017-11-26T03:49:47.901Z,43.9
2017-11-26T03:49:59.985Z,43.5
2017-11-26T03:50:16.908Z,43.4
2017-11-26T03:50:33.109Z,43.3
2017-11-26T03:50:45.257Z,43.9
2017-11-26T03:50:58.252Z,43.4
2017-11-26T03:51:11.150Z,43.5
2017-11-26T03:51:24.082Z,44
2017-11-26T03:51:37.055Z,43.5
2017-11-26T03:51:54.007Z,43.4
2017-11-26T03:52:06.147Z,43.6
2017-11-26T03:52:21.533Z,43.6
2017-11-26T03:52:33.687Z,43.5
2017-11-26T03:52:46.599Z,43.9
2017-11-26T03:52:59.592Z,43.5
2017-11-26T03:53:12.492Z,43.9
2017-11-26T03:53:29.455Z,43.4
2017-11-26T03:53:45.578Z,43.8
2017-11-26T03:53:57.811Z,43.5
2017-11-26T03:54:14.705Z,43.5
2017-11-26T03:54:26.891Z,43.5
2017-11-26T03:54:39.802Z,43.9
2017-11-26T03:54:56.802Z,43.4
2017-11-26T03:55:08.897Z,43.4
2017-11-26T03:55:20.252Z,43.8
2017-11-26T03:55:33.248Z,43.4
2017-11-26T03:55:50.167Z,43.5
2017-11-26T03:56:02.329Z,43.5
2017-11-26T03:56:15.278Z,43.6
2017-11-26T03:56:28.263Z,43.4
2017-11-26T03:56:41.303Z,43.4
2017-11-26T03:56:54.805Z,43.4
2017-11-26T03:57:11.085Z,43.9
2017-11-26T03:57:27.409Z,43.9
2017-11-26T03:57:39.404Z,43.5
2017-11-26T03:57:54.738Z,43.9
2017-11-26T03:58:17.002Z,43.5
2017-11-26T03:58:33.522Z,43.5
2017-11-26T03:58:46.148Z,43.9
2017-11-26T03:58:58.531Z,43.4
2017-11-26T03:59:13.980Z,43.4
2017-11-26T03:59:26.080Z,43.5
2017-11-26T03:59:39.054Z,44.1
2017-11-26T03:59:51.985Z,43.5
2017-11-26T04:00:04.916Z,43.7
2017-11-26T04:00:16.292Z,43.6
2017-11-26T04:00:29.233Z,43.4
2017-11-26T04:00:56.116Z,43.4
2017-11-26T04:01:11.990Z,43.4
2017-11-26T04:01:24.112Z,43.4
2017-11-26T04:01:37.101Z,43.7
2017-11-26T04:01:50.156Z,43.5
2017-11-26T04:02:03.036Z,43.6
2017-11-26T04:02:19.928Z,43.6
2017-11-26T04:02:32.070Z,43.6
2017-11-26T04:02:45.041Z,43.4
2017-11-26T04:02:57.971Z,43.6
2017-11-26T04:03:09.391Z,43.5
2017-11-26T04:03:28.284Z,43.6
2017-11-26T04:03:40.034Z,43.4
2017-11-26T04:03:56.981Z,43.5
2017-11-26T04:04:09.165Z,43.7
2017-11-26T04:04:22.138Z,43.5
2017-11-26T04:04:35.047Z,43.6
2017-11-26T04:04:47.999Z,43.5
2017-11-26T04:04:59.408Z,44
2017-11-26T04:05:12.322Z,43.5
2017-11-26T04:05:25.349Z,43.5
2017-11-26T04:05:38.255Z,43.4
2017-11-26T04:05:55.198Z,43.6
2017-11-26T04:06:07.321Z,43.6
2017-11-26T04:06:20.315Z,43.4
2017-11-26T04:06:33.242Z,43.5
2017-11-26T04:06:46.193Z,43.4
2017-11-26T04:06:59.149Z,43.3
2017-11-26T04:07:12.093Z,43.9
2017-11-26T04:07:27.444Z,43.5
2017-11-26T04:07:39.632Z,43.4
2017-11-26T04:07:56.557Z,43.7
2017-11-26T04:08:08.720Z,43.5
2017-11-26T04:08:21.704Z,43.9
2017-11-26T04:08:34.638Z,43.6
2017-11-26T04:08:55.941Z,43.4
2017-11-26T04:09:08.537Z,43.5
2017-11-26T04:09:25.433Z,43.5
2017-11-26T04:09:37.641Z,43.4
2017-11-26T04:09:50.595Z,43.7
2017-11-26T04:10:07.580Z,43.8
2017-11-26T04:10:23.728Z,43.5
2017-11-26T04:10:35.865Z,43.6
2017-11-26T04:10:48.811Z,43.5
2017-11-26T04:11:01.744Z,43.6
2017-11-26T04:11:17.073Z,43.4
2017-11-26T04:11:29.283Z,44
2017-11-26T04:11:46.257Z,43.7
2017-11-26T04:11:58.364Z,43.6
2017-11-26T04:12:11.348Z,44
2017-11-26T04:12:28.290Z,43.4
2017-11-26T04:12:40.460Z,43.5
2017-11-26T04:12:57.436Z,43.6
2017-11-26T04:13:10.593Z,43.6
2017-11-26T04:13:22.539Z,43.5
2017-11-26T04:13:37.055Z,43.6
2017-11-26T04:13:54.056Z,43.4
2017-11-26T04:14:06.229Z,43.8
2017-11-26T04:14:19.151Z,43.5
2017-11-26T04:14:36.089Z,43.5
2017-11-26T04:14:48.247Z,43.6
2017-11-26T04:15:01.870Z,43.3
2017-11-26T04:15:14.116Z,43.5
2017-11-26T04:15:25.473Z,43.5
2017-11-26T04:15:40.864Z,43.4
2017-11-26T04:15:58.008Z,43.6
2017-11-26T04:16:10.742Z,43.5
2017-11-26T04:16:23.686Z,43.6
2017-11-26T04:16:36.698Z,43.5
2017-11-26T04:16:53.610Z,43.6
2017-11-26T04:17:05.718Z,43.7
2017-11-26T04:17:22.666Z,43.6
2017-11-26T04:17:34.858Z,43.7
2017-11-26T04:17:48.729Z,43.7
2017-11-26T04:18:02.406Z,43.7
2017-11-26T04:18:16.359Z,43.6
2017-11-26T04:18:32.298Z,43.6
2017-11-26T04:18:44.465Z,43.6
2017-11-26T04:18:57.365Z,43.5
2017-11-26T04:19:14.314Z,43.6
2017-11-26T04:19:26.493Z,43.6
2017-11-26T04:19:39.500Z,43.6
2017-11-26T04:19:54.071Z,43.5
2017-11-26T04:20:06.940Z,43.6
2017-11-26T04:20:19.907Z,43.5
2017-11-26T04:20:32.907Z,43.8
2017-11-26T04:20:45.932Z,43.5
2017-11-26T04:20:58.763Z,43.5
2017-11-26T04:21:11.722Z,44
2017-11-26T04:21:28.663Z,43.6
2017-11-26T04:21:40.932Z,43.5
2017-11-26T04:21:53.804Z,43.6
2017-11-26T04:22:06.738Z,43.7
2017-11-26T04:22:19.706Z,43.7
2017-11-26T04:22:32.662Z,43.6
2017-11-26T04:22:45.597Z,43.5
2017-11-26T04:22:58.569Z,43.4
2017-11-26T04:23:11.500Z,43.6
2017-11-26T04:23:24.478Z,43.4
2017-11-26T04:23:37.434Z,43.5
2017-11-26T04:23:50.391Z,43.6
2017-11-26T04:24:03.281Z,43.5
2017-11-26T04:24:14.707Z,43.4
2017-11-26T04:24:27.635Z,43.4
2017-11-26T05:27:35.800Z,43.4
2017-11-26T05:27:48.010Z,43.3
2017-11-26T05:28:04.857Z,43.2
2017-11-26T05:34:07.930Z,43.1
2017-11-26T05:34:20.387Z,43.1
2017-11-26T05:34:33.438Z,43.1
2017-11-26T05:34:46.306Z,43.1
2017-11-26T05:35:03.297Z,43.4
2017-11-26T05:35:15.440Z,43.4
2017-11-26T05:35:32.425Z,43.1
2017-11-26T05:35:48.551Z,43
2017-11-26T05:36:00.673Z,43.1
2017-11-26T05:36:13.660Z,43.1
2017-11-26T05:36:26.644Z,43.2
2017-11-26T05:36:43.579Z,43.1
2017-11-26T05:36:55.690Z,43.2
2017-11-26T05:37:07.077Z,43.3
2017-11-26T05:37:24.001Z,43.1
2017-11-26T05:37:37.724Z,43
2017-11-26T05:37:49.217Z,42.9
2017-11-26T05:38:06.063Z,43.1
2017-11-26T05:38:18.220Z,43.2
2017-11-26T05:38:35.666Z,43
2017-11-26T05:38:47.343Z,43.1
2017-11-26T05:39:00.281Z,43
2017-11-26T05:39:13.298Z,43
2017-11-26T05:39:30.194Z,43.1
2017-11-26T05:39:46.362Z,43
2017-11-26T05:40:02.551Z,43.1
2017-11-26T05:40:18.661Z,43.1
2017-11-26T05:40:30.795Z,43.3
2017-11-26T05:40:43.771Z,43.1
2017-11-26T05:40:56.736Z,43
2017-11-26T05:41:09.627Z,42.9
2017-11-26T05:41:22.618Z,43.1
2017-11-26T05:41:39.588Z,43.2
2017-11-26T05:41:51.723Z,43.1
2017-11-26T05:42:03.175Z,42.9
2017-11-26T05:42:21.080Z,43
2017-11-26T05:42:37.870Z,43.4
2017-11-26T05:42:49.972Z,43.2
2017-11-26T05:43:02.951Z,43
2017-11-26T05:43:15.826Z,43.1
2017-11-26T05:43:32.755Z,43.1
2017-11-26T05:43:44.942Z,43.1
2017-11-26T05:43:57.953Z,43
2017-11-26T05:44:10.881Z,43.2
2017-11-26T05:44:27.843Z,43.4
2017-11-26T05:44:39.997Z,43.4
2017-11-26T05:44:57.063Z,43.1
2017-11-26T05:45:09.130Z,43.1
2017-11-26T05:45:22.058Z,43.1
2017-11-26T05:45:35.012Z,43.1
2017-11-26T05:45:47.927Z,43.1
2017-11-26T05:46:00.902Z,43
2017-11-26T05:46:13.886Z,43.2
2017-11-26T05:46:30.821Z,43.1
2017-11-26T05:46:42.964Z,43.1
2017-11-26T05:46:55.877Z,43.3
2017-11-26T05:47:07.241Z,43.2
2017-11-26T05:47:22.620Z,43.1
2017-11-26T05:47:38.785Z,43.2
2017-11-26T05:47:50.933Z,43.1
2017-11-26T05:48:07.880Z,43.3
2017-11-26T05:48:21.038Z,43.2
2017-11-26T05:48:32.985Z,43.1
2017-11-26T05:48:48.332Z,43.1
2017-11-26T05:49:00.515Z,43.1
2017-11-26T05:49:14.120Z,43.1
2017-11-26T05:49:26.371Z,43.1
2017-11-26T05:49:39.349Z,43.1
2017-11-26T05:49:56.315Z,43.3
2017-11-26T05:50:08.468Z,43.4
2017-11-26T05:50:21.427Z,43.1
2017-11-26T05:50:34.364Z,43.1
2017-11-26T05:50:47.358Z,43.2
2017-11-26T05:51:04.255Z,43.2
2017-11-26T05:51:16.425Z,43
2017-11-26T05:51:33.402Z,43.1
2017-11-26T05:51:45.600Z,43.1
2017-11-26T05:52:02.482Z,43
2017-11-26T05:52:18.684Z,43.1
2017-11-26T05:52:30.820Z,43.2
2017-11-26T05:52:43.709Z,43.1
2017-11-26T05:52:55.156Z,43.1
2017-11-26T05:53:08.117Z,43.1
2017-11-26T05:53:21.036Z,43.1
2017-11-26T05:53:34.025Z,43.1
2017-11-26T05:53:46.915Z,43.3
2017-11-26T05:53:58.221Z,43.2
2017-11-26T05:54:13.696Z,43
2017-11-26T05:54:25.743Z,43.3
2017-11-26T05:54:38.745Z,43.1
2017-11-26T05:54:50.072Z,43.1
2017-11-26T05:55:01.556Z,43.2
2017-11-26T05:55:18.432Z,43
2017-11-26T05:55:30.510Z,43
2017-11-26T05:55:45.927Z,43.5
2017-11-26T05:55:58.050Z,43.1
2017-11-26T05:56:14.985Z,43.2
2017-11-26T05:56:27.184Z,43.1
2017-11-26T05:56:40.104Z,43
2017-11-26T05:56:53.069Z,43.1
2017-11-26T05:57:06.012Z,43.1
2017-11-26T05:57:24.001Z,43.4
2017-11-26T05:57:40.752Z,43.1
2017-11-26T05:57:52.958Z,43.2
2017-11-26T05:58:05.802Z,43.1
2017-11-26T05:58:18.760Z,43
2017-11-26T05:58:30.131Z,43.3
2017-11-26T05:58:43.097Z,43.5
2017-11-26T05:59:00.083Z,43.1
2017-11-26T05:59:12.232Z,43.1
2017-11-26T05:59:25.763Z,43.3
2017-11-26T05:59:38.113Z,43.1
2017-11-26T05:59:51.177Z,43.1
2017-11-26T06:00:04.018Z,43.3
2017-11-26T06:00:16.988Z,43.2
2017-11-26T06:00:33.893Z,43.2
2017-11-26T06:00:50.167Z,43.1
2017-11-26T06:01:02.306Z,43.1
2017-11-26T06:01:15.204Z,43.3
2017-11-26T06:01:28.145Z,43.2
2017-11-26T06:01:41.083Z,43.2
2017-11-26T06:01:52.536Z,43.1
2017-11-26T06:02:05.390Z,43.1
2017-11-26T06:02:18.346Z,43.1
2017-11-26T06:02:33.447Z,43.2
2017-11-26T06:02:45.867Z,43.3
2017-11-26T06:02:58.842Z,43.1
2017-11-26T06:03:11.780Z,43.2
2017-11-26T06:03:28.709Z,43.1
2017-11-26T06:03:40.882Z,43.1
2017-11-26T06:03:53.884Z,43.1
2017-11-26T06:04:10.804Z,43.1
2017-11-26T06:04:22.954Z,43.2
2017-11-26T06:04:35.895Z,43.3
2017-11-26T06:04:47.223Z,43.2
2017-11-26T06:05:00.253Z,43.2
2017-11-26T06:05:13.221Z,43
2017-11-26T06:05:26.127Z,43.2
2017-11-26T06:05:43.080Z,43.1
2017-11-26T06:05:55.235Z,43.2
2017-11-26T06:06:12.747Z,43.1
2017-11-26T06:06:24.371Z,43.2
2017-11-26T06:06:41.271Z,43.1
2017-11-26T06:06:57.411Z,42.9
2017-11-26T06:07:13.574Z,43.3
2017-11-26T06:07:25.684Z,43.2
2017-11-26T06:07:38.650Z,43.1
2017-11-26T06:07:51.606Z,43
2017-11-26T06:08:04.602Z,43.2
2017-11-26T06:08:17.483Z,43.2
2017-11-26T06:08:30.484Z,43.3
2017-11-26T06:08:43.429Z,43.4
2017-11-26T06:09:00.331Z,42.9
2017-11-26T06:09:12.572Z,43.2
2017-11-26T06:09:25.473Z,43
2017-11-26T06:09:38.461Z,43.3
2017-11-26T06:09:51.385Z,43.2
2017-11-26T06:10:08.380Z,43.3
2017-11-26T06:10:20.532Z,43.3
2017-11-26T06:10:33.575Z,43.1
2017-11-26T06:10:46.448Z,43.3
2017-11-26T06:10:59.320Z,43.3
2017-11-26T06:11:10.780Z,43.2
2017-11-26T06:11:23.699Z,43
2017-11-26T06:11:36.663Z,43
2017-11-26T06:11:49.857Z,43.1
2017-11-26T06:12:02.551Z,43.1
2017-11-26T06:12:19.488Z,43.2
2017-11-26T06:12:31.643Z,42.9
2017-11-26T06:12:48.635Z,42.9
2017-11-26T06:13:04.761Z,42.9
2017-11-26T06:13:16.885Z,43.3